Time;durP1;ratioP1;P1;durP2;ratioP2;P2;SDS_P1;SDS_P2;PMS_P1;PMS_P2;Temp;Humidity;BMP_temperature;BMP_pressure;BME280_temperature;BME280_humidity;BME280_pressure;Samples;Min_cycle;Max_cycle;Signal;HPM_P1;HPM_P2
2023/06/10 00:02:09;;;;;;;18.15;5.13;;;512.90;2380.80;;;;;;4892343;29;20029;-72
2023/06/10 00:04:36;;;;;;;9.07;4.80;;;512.90;2380.80;;;;;;4890569;29;20029;-72
2023/06/10 00:07:04;;;;;;;10.88;5.40;;;512.90;2380.80;;;;;;4888429;29;20108;-72
2023/06/10 00:09:29;;;;;;;9.35;5.03;;;537.60;2406.40;;;;;;4884584;29;20108;-73
2023/06/10 00:11:56;;;;;;;8.00;4.03;;;512.90;2380.80;;;;;;4890008;29;20128;-72
2023/06/10 00:14:21;;;;;;;10.52;5.63;;;512.90;2380.80;;;;;;4886868;29;20456;-71
2023/06/10 00:16:49;;;;;;;18.55;5.55;;;512.90;2380.80;;;;;;4885306;29;20415;-72
2023/06/10 00:19:15;;;;;;;12.70;4.85;;;512.90;2380.80;;;;;;4892427;29;20023;-72
2023/06/10 00:21:41;;;;;;;11.20;4.95;;;512.90;2380.80;;;;;;4883428;29;20053;-74
2023/06/10 00:24:14;;;;;;;8.57;5.10;;;512.90;2380.80;;;;;;4887652;29;20063;-72
2023/06/10 00:26:40;;;;;;;10.50;4.40;;;537.60;2406.40;;;;;;4888621;29;20044;-71
2023/06/10 00:29:07;;;;;;;11.25;5.13;;;537.60;2406.40;;;;;;4895351;29;20028;-72
2023/06/10 00:31:34;;;;;;;10.07;5.32;;;537.60;2406.40;;;;;;4893814;29;20037;-73
2023/06/10 00:34:00;;;;;;;7.35;4.32;;;512.90;2380.80;;;;;;4887512;29;20028;-76
2023/06/10 00:36:26;;;;;;;8.15;4.80;;;537.70;2406.40;;;;;;4887180;29;20387;-75
2023/06/10 00:38:52;;;;;;;7.47;4.30;;;537.70;2406.40;;;;;;4891025;29;20025;-75
2023/06/10 00:41:18;;;;;;;7.95;5.22;;;537.80;2406.40;;;;;;4887687;29;20494;-72
2023/06/10 00:43:44;;;;;;;7.63;5.20;;;537.80;2406.40;;;;;;4887011;29;20040;-78
2023/06/10 00:46:11;;;;;;;9.32;5.75;;;537.80;2406.40;;;;;;4881146;29;20036;-73
2023/06/10 00:48:41;;;;;;;6.88;4.68;;;537.60;2406.40;;;;;;4894347;29;20060;-72
2023/06/10 00:51:08;;;;;;;10.68;5.68;;;512.90;2380.80;;;;;;4899667;29;20060;-80
2023/06/10 00:53:35;;;;;;;6.63;4.82;;;512.90;2380.80;;;;;;4899544;29;20459;-72
2023/06/10 00:56:02;;;;;;;9.00;4.57;;;537.60;2406.40;;;;;;4899618;29;20043;-77
2023/06/10 00:58:28;;;;;;;9.80;5.15;;;512.90;2380.80;;;;;;4899537;29;20030;-73
2023/06/10 01:00:53;;;;;;;9.05;5.15;;;537.60;2406.40;;;;;;4899634;29;20024;-72
2023/06/10 01:03:19;;;;;;;9.73;5.00;;;512.90;2380.80;;;;;;4899523;29;20394;-73
2023/06/10 01:05:52;;;;;;;8.52;6.05;;;537.80;2406.40;;;;;;4899502;29;20024;-73
2023/06/10 01:08:33;;;;;;;7.20;4.65;;;512.90;2380.80;;;;;;4899626;29;20023;-74
2023/06/10 01:11:01;;;;;;;7.97;5.03;;;512.90;2380.80;;;;;;4899048;29;20040;-75
2023/06/10 01:13:29;;;;;;;11.23;6.03;;;512.90;2380.80;;;;;;4899231;29;20031;-79
2023/06/10 01:15:56;;;;;;;10.55;5.28;;;512.90;2380.80;;;;;;4898919;29;20135;-77
2023/06/10 01:18:21;;;;;;;12.02;5.28;;;512.90;2380.80;;;;;;4899097;29;20032;-73
2023/06/10 01:20:48;;;;;;;11.90;5.95;;;512.80;2380.80;;;;;;4899067;29;20036;-79
2023/06/10 01:23:15;;;;;;;7.35;5.63;;;512.80;2380.80;;;;;;4899028;29;20024;-83
2023/06/10 01:25:50;;;;;;;10.02;6.05;;;512.70;2380.80;;;;;;4898844;29;20474;-72
2023/06/10 01:28:31;;;;;;;10.97;5.60;;;512.70;2380.80;;;;;;4898921;29;20032;-71
2023/06/10 01:31:09;;;;;;;7.03;5.43;;;512.60;2380.80;;;;;;4898954;29;20543;-72
2023/06/10 01:33:39;;;;;;;10.13;5.53;;;512.50;2380.80;;;;;;4881463;29;20029;-73
2023/06/10 01:36:05;;;;;;;9.13;5.80;;;512.40;2380.80;;;;;;4898926;29;20024;-74
2023/06/10 01:38:37;;;;;;;8.82;6.07;;;512.40;2380.80;;;;;;4898832;29;20028;-75
2023/06/10 01:41:04;;;;;;;11.48;6.05;;;512.30;2380.80;;;;;;4898519;29;20035;-73
2023/06/10 01:43:33;;;;;;;8.15;6.53;;;512.10;2380.80;;;;;;4898778;29;20029;-73
2023/06/10 01:45:59;;;;;;;11.75;6.53;;;512.20;2380.80;;;;;;4898556;29;20093;-78
2023/06/10 01:48:24;;;;;;;8.43;5.60;;;512.20;2380.80;;;;;;4898927;29;20032;-73
2023/06/10 01:50:50;;;;;;;12.95;6.63;;;512.20;2380.80;;;;;;4898754;29;20040;-74
2023/06/10 01:53:16;;;;;;;12.23;6.00;;;512.20;2380.80;;;;;;4898679;29;20036;-73
2023/06/10 01:55:42;;;;;;;18.85;6.38;;;512.20;2380.80;;;;;;4898477;29;20024;-73
2023/06/10 01:58:07;;;;;;;7.45;5.32;;;512.20;2380.80;;;;;;4898722;29;20035;-81
2023/06/10 02:00:33;;;;;;;12.35;5.38;;;512.20;2380.80;;;;;;4898453;29;20513;-74
2023/06/10 02:02:59;;;;;;;9.95;5.90;;;512.40;2380.80;;;;;;4898490;29;20033;-73
2023/06/10 02:05:24;;;;;;;7.25;5.03;;;512.40;2380.80;;;;;;4881403;29;20044;-80
2023/06/10 02:07:50;;;;;;;9.77;5.30;;;512.20;2380.80;;;;;;4898479;29;20025;-73
2023/06/10 02:10:16;;;;;;;12.95;6.10;;;512.30;2380.80;;;;;;4898487;29;20417;-75
2023/06/10 02:12:42;;;;;;;8.90;5.80;;;512.50;2380.80;;;;;;4898651;29;20025;-72
2023/06/10 02:15:07;;;;;;;7.53;5.25;;;512.40;2380.80;;;;;;4897730;29;20490;-74
2023/06/10 02:17:33;;;;;;;13.13;6.43;;;512.30;2380.80;;;;;;4897859;29;20505;-73
2023/06/10 02:19:59;;;;;;;9.18;6.45;;;512.40;2380.80;;;;;;4897578;29;20029;-73
2023/06/10 02:22:25;;;;;;;14.20;6.85;;;512.40;2380.80;;;;;;4893651;29;20021;-74
2023/06/10 02:24:51;;;;;;;13.63;6.57;;;512.20;2380.80;;;;;;4878727;29;20029;-73
2023/06/10 02:27:17;;;;;;;12.38;7.22;;;512.20;2380.80;;;;;;4886293;29;20064;-77
2023/06/10 02:29:43;;;;;;;13.43;6.78;;;512.20;2380.80;;;;;;4892411;29;20497;-73
2023/06/10 02:32:09;;;;;;;9.40;6.60;;;512.40;2380.80;;;;;;4897546;29;20040;-73
2023/06/10 02:34:36;;;;;;;8.82;6.70;;;512.50;2380.80;;;;;;4882712;29;20085;-73
2023/06/10 02:37:02;;;;;;;9.63;6.28;;;512.40;2380.80;;;;;;4881518;29;20065;-73
2023/06/10 02:39:28;;;;;;;14.18;6.97;;;512.20;2380.80;;;;;;4886094;29;20067;-78
2023/06/10 02:41:53;;;;;;;12.98;8.02;;;512.30;2380.80;;;;;;4880290;29;20137;-75
2023/06/10 02:44:20;;;;;;;13.75;7.30;;;512.20;2380.80;;;;;;4879418;29;20037;-73
2023/06/10 02:46:46;;;;;;;13.30;7.20;;;512.10;2380.80;;;;;;4884958;29;20033;-74
2023/06/10 02:49:12;;;;;;;16.45;6.80;;;512.20;2380.80;;;;;;4888979;29;20025;-74
2023/06/10 02:51:38;;;;;;;11.98;6.45;;;512.20;2380.80;;;;;;4888348;29;20041;-77
2023/06/10 02:54:04;;;;;;;12.30;6.93;;;512.40;2380.80;;;;;;4887613;29;20108;-73
2023/06/10 02:56:31;;;;;;;15.52;7.50;;;512.60;2380.80;;;;;;4884943;29;20044;-74
2023/06/10 02:58:57;;;;;;;11.57;7.50;;;512.50;2380.80;;;;;;4882391;29;20156;-73
2023/06/10 03:01:23;;;;;;;12.15;7.03;;;512.60;2380.80;;;;;;4882281;29;20506;-73
2023/06/10 03:03:50;;;;;;;11.48;7.07;;;512.70;2380.80;;;;;;4888382;29;20013;-72
2023/06/10 03:06:16;;;;;;;9.85;6.82;;;512.80;2380.80;;;;;;4885078;29;20052;-72
2023/06/10 03:08:42;;;;;;;14.85;6.20;;;512.90;2380.80;;;;;;4890744;29;20044;-73
2023/06/10 03:11:08;;;;;;;12.90;7.72;;;512.90;2380.80;;;;;;4888703;29;20029;-74
2023/06/10 03:13:34;;;;;;;11.27;7.07;;;512.90;2380.80;;;;;;4885537;29;20021;-75
2023/06/10 03:15:59;;;;;;;12.23;6.60;;;537.60;2406.40;;;;;;4883843;29;20092;-82
2023/06/10 03:18:26;;;;;;;10.80;7.30;;;537.70;2406.40;;;;;;4883902;29;20025;-83
2023/06/10 03:20:52;;;;;;;11.02;6.97;;;537.70;2406.40;;;;;;4881552;29;20479;-81
2023/06/10 03:23:18;;;;;;;11.20;6.70;;;537.80;2406.40;;;;;;4886637;29;20032;-73
2023/06/10 03:25:45;;;;;;;11.90;6.97;;;537.80;2406.40;;;;;;4886328;29;20021;-73
2023/06/10 03:28:11;;;;;;;13.52;8.88;;;537.90;2406.40;;;;;;4881469;29;20025;-77
2023/06/10 03:30:37;;;;;;;17.30;10.30;;;538.00;2406.40;;;;;;4881326;29;20092;-73
2023/06/10 03:33:03;;;;;;;15.43;10.93;;;538.00;2406.40;;;;;;4883661;29;20036;-74
2023/06/10 03:35:29;;;;;;;18.25;11.85;;;538.10;2406.40;;;;;;4881263;29;20029;-87
2023/06/10 03:37:55;;;;;;;21.83;12.38;;;538.20;2406.40;;;;;;4885509;29;20152;-73
2023/06/10 03:40:21;;;;;;;16.38;11.18;;;538.20;2406.40;;;;;;4897853;29;20104;-82
2023/06/10 03:42:46;;;;;;;25.20;12.23;;;538.30;2406.40;;;;;;4893945;29;20028;-80
2023/06/10 03:45:12;;;;;;;22.60;12.35;;;538.30;2406.40;;;;;;4880781;29;20036;-79
2023/06/10 03:47:40;;;;;;;19.90;14.25;;;538.20;2406.40;;;;;;4888584;29;20120;-74
2023/06/10 03:50:07;;;;;;;21.88;14.75;;;538.20;2406.40;;;;;;4885866;29;20654;-80
2023/06/10 03:52:34;;;;;;;18.92;14.32;;;538.20;2406.40;;;;;;4884529;29;20056;-74
2023/06/10 03:54:59;;;;;;;21.67;14.45;;;538.10;2406.40;;;;;;4886908;29;20029;-74
2023/06/10 03:57:25;;;;;;;21.80;13.57;;;538.10;2406.40;;;;;;4890762;29;20032;-74
2023/06/10 03:59:51;;;;;;;23.75;15.90;;;538.00;2406.40;;;;;;4888959;29;20017;-73
2023/06/10 04:02:17;;;;;;;22.13;14.25;;;538.00;2406.40;;;;;;4889908;29;20107;-75
2023/06/10 04:04:43;;;;;;;24.27;15.45;;;538.00;2406.40;;;;;;4880657;29;20072;-77
2023/06/10 04:07:09;;;;;;;21.05;14.10;;;538.10;2406.40;;;;;;4883443;29;20045;-80
2023/06/10 04:09:36;;;;;;;22.20;12.57;;;538.10;2406.40;;;;;;4882471;29;20077;-74
2023/06/10 04:12:02;;;;;;;17.08;12.75;;;538.20;2406.40;;;;;;4890450;29;20043;-73
2023/06/10 04:14:28;;;;;;;15.88;12.38;;;538.20;2406.40;;;;;;4887548;29;20041;-73
2023/06/10 04:16:54;;;;;;;21.52;12.10;;;538.30;2406.40;;;;;;4880207;29;20149;-80
2023/06/10 04:19:21;;;;;;;18.88;11.82;;;538.30;2406.40;;;;;;4881547;29;20033;-75
2023/06/10 04:21:47;;;;;;;27.85;13.20;;;538.20;2406.40;;;;;;4893141;29;20060;-76
2023/06/10 04:24:12;;;;;;;18.67;12.20;;;538.20;2406.40;;;;;;4893021;29;20490;-73
2023/06/10 04:26:38;;;;;;;16.27;13.13;;;538.20;2406.40;;;;;;4880971;29;20028;-77
2023/06/10 04:29:04;;;;;;;18.48;12.80;;;538.10;2406.40;;;;;;4880964;29;20021;-75
2023/06/10 04:31:30;;;;;;;20.45;12.45;;;538.10;2406.40;;;;;;4893256;29;20487;-76
2023/06/10 04:33:55;;;;;;;19.65;13.45;;;538.20;2406.40;;;;;;4881014;29;20449;-76
2023/06/10 04:36:21;;;;;;;20.45;12.88;;;538.30;2406.40;;;;;;4880763;29;20033;-74
2023/06/10 04:38:47;;;;;;;18.48;14.32;;;538.40;2406.40;;;;;;4880862;29;20029;-74
2023/06/10 04:41:13;;;;;;;16.70;14.77;;;538.40;2022.40;;;;;;4880709;29;20392;-75
2023/06/10 04:43:38;;;;;;;20.13;14.15;;;538.50;2150.40;;;;;;4889260;29;20052;-74
2023/06/10 04:46:04;;;;;;;19.33;14.70;;;538.50;2099.20;;;;;;4884335;29;20057;-75
2023/06/10 04:48:30;;;;;;;19.83;13.85;;;538.50;2406.40;;;;;;4880685;29;20108;-72
2023/06/10 04:50:56;;;;;;;17.92;13.73;;;563.20;2432.00;;;;;;4883463;29;20032;-76
2023/06/10 04:53:22;;;;;;;22.60;14.93;;;538.50;2406.40;;;;;;4889775;29;20017;-75
2023/06/10 04:55:48;;;;;;;33.53;16.85;;;538.50;2406.40;;;;;;4880288;29;20033;-74
2023/06/10 04:58:14;;;;;;;26.23;19.42;;;538.50;2406.40;;;;;;4880463;29;20029;-74
2023/06/10 05:00:40;;;;;;;34.80;20.30;;;538.40;2406.40;;;;;;4880300;29;20040;-76
2023/06/10 05:03:06;;;;;;;28.15;20.55;;;538.50;2406.40;;;;;;4880508;29;20029;-74
2023/06/10 05:05:31;;;;;;;27.42;20.27;;;538.50;2406.40;;;;;;4880192;29;20468;-72
2023/06/10 05:07:57;;;;;;;28.27;19.05;;;563.20;2432.00;;;;;;4879815;29;20029;-79
2023/06/10 05:10:23;;;;;;;28.52;18.65;;;563.30;2432.00;;;;;;4880281;29;20032;-71
2023/06/10 05:12:49;;;;;;;29.30;19.90;;;563.30;2432.00;;;;;;4880213;29;20065;-74
2023/06/10 05:15:14;;;;;;;25.42;16.67;;;563.30;2432.00;;;;;;4897758;29;20064;-73
2023/06/10 05:17:40;;;;;;;23.48;14.88;;;563.20;2432.00;;;;;;4891103;29;20045;-73
2023/06/10 05:20:06;;;;;;;25.60;14.05;;;563.30;2432.00;;;;;;4888347;29;20024;-72
2023/06/10 05:22:32;;;;;;;21.63;15.32;;;563.30;2432.00;;;;;;4891534;29;20052;-73
2023/06/10 05:24:58;;;;;;;23.13;12.82;;;563.40;2432.00;;;;;;4891909;29;20109;-72
2023/06/10 05:27:24;;;;;;;19.05;11.75;;;563.50;2432.00;;;;;;4891093;29;20028;-75
2023/06/10 05:29:51;;;;;;;16.92;11.98;;;563.60;2432.00;;;;;;4888640;29;20531;-77
2023/06/10 05:32:17;;;;;;;16.65;11.13;;;563.70;2432.00;;;;;;4889518;29;20070;-73
2023/06/10 05:34:43;;;;;;;20.02;12.07;;;563.70;2432.00;;;;;;4887838;29;20161;-73
2023/06/10 05:37:09;;;;;;;17.00;12.18;;;563.80;2432.00;;;;;;4889730;29;21055;-73
2023/06/10 05:39:37;;;;;;;25.08;11.68;;;563.90;2432.00;;;;;;4884088;29;20176;-74
2023/06/10 05:42:06;;;;;;;16.42;12.02;;;563.90;2432.00;;;;;;4890038;29;20021;-77
2023/06/10 05:44:32;;;;;;;25.00;12.93;;;563.90;2432.00;;;;;;4865614;29;20029;-73
2023/06/10 05:46:58;;;;;;;17.38;12.25;;;563.90;2432.00;;;;;;4888462;29;20033;-74
2023/06/10 05:49:24;;;;;;;25.92;15.52;;;564.00;2432.00;;;;;;4882056;29;20028;-73
2023/06/10 05:51:52;;;;;;;20.00;13.63;;;563.80;2432.00;;;;;;4885057;29;20041;-72
2023/06/10 05:54:18;;;;;;;23.67;14.60;;;563.80;2432.00;;;;;;4891097;29;20107;-73
2023/06/10 05:56:44;;;;;;;20.52;13.63;;;564.00;2432.00;;;;;;4885316;29;20112;-73
2023/06/10 05:59:10;;;;;;;22.48;14.57;;;564.00;2432.00;;;;;;4887519;29;20483;-72
2023/06/10 06:01:35;;;;;;;26.90;16.73;;;564.00;2432.00;;;;;;4892354;29;20089;-74
2023/06/10 06:04:01;;;;;;;26.23;17.30;;;588.80;2432.00;;;;;;4886780;29;20021;-74
2023/06/10 06:06:27;;;;;;;24.70;19.20;;;588.90;2432.00;;;;;;4890692;29;20479;-73
2023/06/10 06:08:52;;;;;;;25.15;17.63;;;588.90;2432.00;;;;;;4887791;29;20025;-73
2023/06/10 06:11:18;;;;;;;21.13;16.55;;;588.90;2432.00;;;;;;4884084;29;20551;-72
2023/06/10 06:13:44;;;;;;;22.58;16.95;;;588.90;2432.00;;;;;;4879940;29;20052;-72
2023/06/10 06:16:09;;;;;;;21.08;16.92;;;588.90;2432.00;;;;;;4889329;29;20040;-72
2023/06/10 06:18:35;;;;;;;24.15;18.88;;;588.80;2432.00;;;;;;4881612;29;20029;-72
2023/06/10 06:21:01;;;;;;;22.08;16.13;;;588.90;2432.00;;;;;;4881877;29;20092;-75
2023/06/10 06:23:26;;;;;;;20.00;16.02;;;589.00;2432.00;;;;;;4894171;29;20035;-74
2023/06/10 06:25:52;;;;;;;20.00;15.93;;;589.00;2432.00;;;;;;4897318;29;20035;-73
2023/06/10 06:28:18;;;;;;;20.77;14.18;;;589.20;2432.00;;;;;;4891750;29;20472;-72
2023/06/10 06:30:45;;;;;;;18.55;15.07;;;589.40;2432.00;;;;;;4881542;29;20029;-73
2023/06/10 06:33:10;;;;;;;21.75;14.45;;;589.50;2432.00;;;;;;4889196;29;20502;-72
2023/06/10 06:35:38;;;;;;;18.00;12.23;;;589.70;2432.00;;;;;;4886116;29;20035;-74
2023/06/10 06:38:04;;;;;;;12.18;10.10;;;614.40;2432.00;;;;;;4888666;29;20032;-72
2023/06/10 06:40:30;;;;;;;12.57;10.32;;;614.50;2432.00;;;;;;4885794;29;20079;-72
2023/06/10 06:42:55;;;;;;;15.13;10.07;;;614.60;2432.00;;;;;;4888130;29;20033;-74
2023/06/10 06:45:21;;;;;;;15.02;11.15;;;614.70;2432.00;;;;;;4886632;29;20472;-74
2023/06/10 06:47:47;;;;;;;13.65;10.43;;;614.80;2432.00;;;;;;4887833;29;20364;-76
2023/06/10 06:50:13;;;;;;;13.07;10.48;;;614.80;2432.00;;;;;;4890839;29;20024;-73
2023/06/10 06:52:38;;;;;;;16.17;11.00;;;614.80;2432.00;;;;;;4888511;29;20040;-72
2023/06/10 06:55:04;;;;;;;13.05;9.60;;;614.70;2432.00;;;;;;4882143;29;20480;-72
2023/06/10 06:57:30;;;;;;;12.30;9.80;;;614.50;2432.00;;;;;;4881908;29;20387;-75
2023/06/10 06:59:56;;;;;;;13.60;10.23;;;614.40;2432.00;;;;;;4891404;29;20025;-72
2023/06/10 07:02:22;;;;;;;18.67;10.68;;;614.40;2432.00;;;;;;4887451;29;20546;-72
2023/06/10 07:04:50;;;;;;;14.65;9.90;;;614.40;2432.00;;;;;;4889999;29;20539;-72
2023/06/10 07:07:16;;;;;;;14.70;10.00;;;614.50;2432.00;;;;;;4898508;29;20475;-77
2023/06/10 07:09:42;;;;;;;19.63;14.60;;;614.50;2432.00;;;;;;4888221;29;20160;-72
2023/06/10 07:12:08;;;;;;;19.05;15.82;;;614.70;2432.00;;;;;;4885490;29;20087;-73
2023/06/10 07:14:34;;;;;;;20.13;15.00;;;614.70;2432.00;;;;;;4886919;29;20085;-73
2023/06/10 07:17:00;;;;;;;17.10;13.45;;;614.70;2432.00;;;;;;4886510;29;20043;-72
2023/06/10 07:19:25;;;;;;;19.85;13.68;;;614.80;2432.00;;;;;;4887032;29;20025;-70
2023/06/10 07:21:51;;;;;;;16.35;12.65;;;614.90;2432.00;;;;;;4898191;29;20181;-71
2023/06/10 07:24:17;;;;;;;21.08;13.85;;;615.00;2432.00;;;;;;4884562;29;20064;-70
2023/06/10 07:26:42;;;;;;;15.48;11.13;;;615.10;2432.00;;;;;;4885554;29;20112;-71
2023/06/10 07:29:08;;;;;;;15.98;9.52;;;615.20;2432.00;;;;;;4885450;29;20035;-71
2023/06/10 07:31:34;;;;;;;19.52;10.38;;;615.30;2432.00;;;;;;4886961;29;20040;-71
2023/06/10 07:34:00;;;;;;;16.02;9.65;;;640.00;2432.00;;;;;;4897971;29;20427;-70
2023/06/10 07:36:27;;;;;;;16.15;10.40;;;640.30;2432.00;;;;;;4888525;29;20120;-75
2023/06/10 07:38:54;;;;;;;11.88;9.75;;;640.50;2432.00;;;;;;4892972;29;20507;-71
2023/06/10 07:41:20;;;;;;;15.38;10.43;;;640.50;2432.00;;;;;;4887212;29;20452;-72
2023/06/10 07:43:46;;;;;;;10.70;8.13;;;640.50;2432.00;;;;;;4886826;29;20033;-74
2023/06/10 07:46:11;;;;;;;9.15;7.72;;;640.70;2432.00;;;;;;4886492;29;20033;-70
2023/06/10 07:48:37;;;;;;;11.60;7.35;;;640.80;2432.00;;;;;;4890251;29;20400;-71
2023/06/10 07:51:03;;;;;;;9.60;7.50;;;640.50;2432.00;;;;;;4884280;29;20040;-72
2023/06/10 07:53:28;;;;;;;9.38;6.78;;;640.20;2432.00;;;;;;4884201;29;20107;-71
2023/06/10 07:55:55;;;;;;;11.88;7.82;;;640.20;2432.00;;;;;;4889327;29;20058;-72
2023/06/10 07:58:22;;;;;;;10.07;7.82;;;640.40;2432.00;;;;;;4894141;29;20510;-71
2023/06/10 08:00:47;;;;;;;14.75;8.15;;;640.70;2432.00;;;;;;4886789;29;20033;-71
2023/06/10 08:03:13;;;;;;;9.75;7.88;;;640.80;2432.00;;;;;;4894938;29;20025;-71
2023/06/10 08:05:40;;;;;;;8.93;7.60;;;665.70;2432.00;;;;;;4893575;29;20025;-73
2023/06/10 08:08:06;;;;;;;8.43;7.00;;;665.70;2432.00;;;;;;4890004;29;20090;-74
2023/06/10 08:10:31;;;;;;;12.30;7.78;;;640.90;2432.00;;;;;;4889602;29;20074;-71
2023/06/10 08:12:57;;;;;;;10.85;8.25;;;640.70;2432.00;;;;;;4895330;29;20390;-72
2023/06/10 08:15:23;;;;;;;13.43;7.50;;;640.70;2432.00;;;;;;4889239;29;20053;-71
2023/06/10 08:17:48;;;;;;;15.55;7.90;;;640.60;2432.00;;;;;;4889968;29;20125;-72
2023/06/10 08:20:14;;;;;;;11.50;7.85;;;640.40;2432.00;;;;;;4886234;29;20037;-71
2023/06/10 08:22:40;;;;;;;10.50;7.55;;;640.40;2432.00;;;;;;4888587;29;20507;-72
2023/06/10 08:25:06;;;;;;;10.10;8.85;;;640.60;2432.00;;;;;;4898837;29;20040;-72
2023/06/10 08:27:31;;;;;;;12.80;8.00;;;640.80;2432.00;;;;;;4887597;29;20032;-72
2023/06/10 08:30:00;;;;;;;11.95;7.82;;;640.80;2432.00;;;;;;4883818;29;20507;-72
2023/06/10 08:32:26;;;;;;;9.95;7.82;;;665.60;2432.00;;;;;;4888521;29;20068;-72
2023/06/10 08:34:51;;;;;;;14.18;7.82;;;665.60;2432.00;;;;;;4886735;29;20472;-76
2023/06/10 08:37:17;;;;;;;9.60;7.47;;;665.60;2432.00;;;;;;4882992;29;20029;-71
2023/06/10 08:39:43;;;;;;;10.88;6.70;;;640.80;2432.00;;;;;;4878747;29;20032;-73
2023/06/10 08:42:26;;;;;;;9.75;6.85;;;640.90;2432.00;;;;;;4885850;29;20033;-73
2023/06/10 08:44:55;;;;;;;10.60;7.25;;;640.90;2432.00;;;;;;4889996;29;20518;-72
2023/06/10 08:47:23;;;;;;;9.23;6.13;;;640.90;2432.00;;;;;;4885239;29;20048;-71
2023/06/10 08:49:49;;;;;;;13.40;6.50;;;640.80;2432.00;;;;;;4884517;29;20021;-73
2023/06/10 08:52:16;;;;;;;8.77;6.57;;;640.70;2432.00;;;;;;4890594;29;20439;-73
2023/06/10 08:55:10;;;;;;;8.00;6.15;;;640.70;2432.00;;;;;;4882859;29;20029;-73
2023/06/10 08:57:36;;;;;;;10.35;6.47;;;640.80;2432.00;;;;;;4890813;29;20156;-72
2023/06/10 09:00:04;;;;;;;10.43;6.72;;;640.90;2432.00;;;;;;4899851;29;20070;-73
2023/06/10 09:02:35;;;;;;;9.93;6.80;;;665.70;2432.00;;;;;;4884125;29;20032;-74
2023/06/10 09:05:01;;;;;;;7.45;6.47;;;665.90;2432.00;;;;;;4890884;29;20028;-72
2023/06/10 09:07:31;;;;;;;9.27;5.57;;;666.20;2432.00;;;;;;4886888;29;20029;-73
2023/06/10 09:09:58;;;;;;;10.90;6.07;;;666.30;2432.00;;;;;;4892330;29;20042;-73
2023/06/10 09:12:24;;;;;;;7.43;5.70;;;691.20;2432.00;;;;;;4888695;29;20085;-72
2023/06/10 09:14:50;;;;;;;10.73;6.35;;;666.50;2432.00;;;;;;4889300;29;20041;-72
2023/06/10 09:17:17;;;;;;;8.27;6.07;;;666.20;2432.00;;;;;;4887824;29;20060;-73
2023/06/10 09:19:44;;;;;;;8.55;6.40;;;666.20;2432.00;;;;;;4892191;29;20029;-73
2023/06/10 09:22:11;;;;;;;7.97;5.93;;;666.20;2432.00;;;;;;4889726;29;20035;-76
2023/06/10 09:24:37;;;;;;;11.60;6.45;;;666.00;2432.00;;;;;;4887191;29;20829;-72
2023/06/10 09:27:07;;;;;;;8.00;6.57;;;665.90;2432.00;;;;;;4887332;29;20032;-73
2023/06/10 09:30:06;;;;;;;11.18;6.43;;;665.90;2432.00;;;;;;4886948;29;20027;-73
2023/06/10 09:32:38;;;;;;;6.85;6.13;;;666.00;2432.00;;;;;;4855307;29;20050;-76
2023/06/10 09:35:09;;;;;;;8.68;6.65;;;666.00;2432.00;;;;;;4864034;29;20112;-72
2023/06/10 09:37:38;;;;;;;13.52;6.63;;;665.90;2432.00;;;;;;4859340;29;20475;-72
2023/06/10 09:40:06;;;;;;;14.10;5.93;;;665.90;2432.00;;;;;;4859189;29;20044;-74
2023/06/10 09:42:34;;;;;;;10.57;6.32;;;665.80;2432.00;;;;;;4863131;29;20061;-75
2023/06/10 09:45:00;;;;;;;7.75;5.55;;;665.90;2432.00;;;;;;4862470;29;20117;-72
2023/06/10 09:47:25;;;;;;;5.75;5.00;;;665.90;2432.00;;;;;;4869704;29;20142;-73
2023/06/10 09:49:53;;;;;;;6.97;4.47;;;665.60;2432.00;;;;;;4866321;29;20129;-73
2023/06/10 09:52:29;;;;;;;8.18;4.43;;;665.70;2432.00;;;;;;4866168;29;20033;-74
2023/06/10 09:55:01;;;;;;;6.90;5.45;;;665.90;2432.00;;;;;;4861454;29;20389;-73
2023/06/10 09:57:32;;;;;;;10.65;6.72;;;665.70;2432.00;;;;;;4863943;29;20060;-72
2023/06/10 09:59:58;;;;;;;9.50;6.95;;;665.80;2432.00;;;;;;4847846;29;20367;-75
2023/06/10 10:02:24;;;;;;;9.35;7.18;;;665.70;2432.00;;;;;;4862683;29;20036;-72
2023/06/10 10:04:50;;;;;;;10.88;7.35;;;665.90;2432.00;;;;;;4868138;29;20053;-76
2023/06/10 10:07:15;;;;;;;8.52;6.18;;;665.80;2432.00;;;;;;4871010;29;20039;-72
2023/06/10 10:09:42;;;;;;;9.13;5.65;;;665.80;2432.00;;;;;;4890104;29;20108;-72
2023/06/10 10:12:15;;;;;;;9.02;5.80;;;665.80;2432.00;;;;;;4884431;29;20041;-73
2023/06/10 10:14:47;;;;;;;7.95;4.97;;;665.80;2432.00;;;;;;4883084;29;20052;-74
2023/06/10 10:17:15;;;;;;;12.63;5.13;;;666.10;2432.00;;;;;;4881628;29;20081;-75
2023/06/10 10:19:48;;;;;;;6.28;3.85;;;666.20;2432.00;;;;;;4872997;29;20033;-72
2023/06/10 10:22:20;;;;;;;8.40;4.20;;;666.50;2432.00;;;;;;4883663;29;20033;-73
2023/06/10 10:24:53;;;;;;;7.00;4.88;;;666.50;2406.40;;;;;;4888781;29;20024;-76
2023/06/10 10:27:25;;;;;;;5.95;4.32;;;666.50;2432.00;;;;;;4881511;29;20068;-73
2023/06/10 10:29:53;;;;;;;8.10;5.97;;;666.50;2432.00;;;;;;4886158;29;20108;-75
2023/06/10 10:32:25;;;;;;;11.07;5.88;;;666.50;2432.00;;;;;;4883457;29;20041;-74
2023/06/10 10:35:15;;;;;;;8.73;6.07;;;666.30;2432.00;;;;;;4881687;29;20563;-72
2023/06/10 10:37:41;;;;;;;10.60;6.75;;;666.20;2432.00;;;;;;4890247;29;20033;-73
2023/06/10 10:40:08;;;;;;;7.80;6.38;;;666.30;2432.00;;;;;;4871054;29;20157;-73
2023/06/10 10:42:35;;;;;;;8.65;5.85;;;666.40;2432.00;;;;;;4888527;29;20140;-73
2023/06/10 10:45:01;;;;;;;6.85;5.28;;;666.30;2432.00;;;;;;4885913;29;20029;-74
2023/06/10 10:47:30;;;;;;;7.35;4.70;;;666.20;2432.00;;;;;;4885849;29;20037;-72
2023/06/10 10:49:59;;;;;;;6.03;4.10;;;666.20;2432.00;;;;;;4890721;29;20044;-72
2023/06/10 10:52:45;;;;;;;5.72;4.05;;;666.20;2432.00;;;;;;4887761;29;20049;-71
2023/06/10 10:55:14;;;;;;;5.35;3.70;;;666.20;2432.00;;;;;;4884297;29;20022;-74
2023/06/10 10:57:40;;;;;;;5.90;3.75;;;666.20;2432.00;;;;;;4885335;29;20046;-74
2023/06/10 11:00:07;;;;;;;4.70;3.45;;;666.20;2432.00;;;;;;4889495;29;20029;-76
2023/06/10 11:02:40;;;;;;;6.00;3.70;;;666.20;2432.00;;;;;;4894852;29;20020;-71
2023/06/10 11:05:07;;;;;;;4.63;3.63;;;666.50;2432.00;;;;;;4882315;29;20543;-73
2023/06/10 11:07:34;;;;;;;16.08;5.55;;;666.40;2432.00;;;;;;4884636;29;20029;-71
2023/06/10 11:10:09;;;;;;;7.03;4.40;;;666.20;2432.00;;;;;;4890626;29;20039;-75
2023/06/10 11:12:54;;;;;;;6.88;3.88;;;666.20;2432.00;;;;;;4889916;29;20037;-72
2023/06/10 11:15:23;;;;;;;4.85;4.03;;;666.20;2432.00;;;;;;4894396;29;20141;-72
2023/06/10 11:18:14;;;;;;;5.13;4.07;;;666.30;2432.00;;;;;;4890741;29;20031;-72
2023/06/10 11:20:48;;;;;;;6.70;4.05;;;666.20;2432.00;;;;;;4885414;29;20051;-74
2023/06/10 11:23:32;;;;;;;5.75;4.03;;;666.40;2432.00;;;;;;4892144;29;20092;-73
2023/06/10 11:26:37;;;;;;;5.18;4.30;;;691.20;2432.00;;;;;;4892644;29;20060;-73
2023/06/10 11:29:08;;;;;;;6.07;3.65;;;691.30;2432.00;;;;;;4884652;29;20033;-72
2023/06/10 11:31:39;;;;;;;6.93;3.97;;;691.60;2150.40;;;;;;4888447;29;20119;-72
2023/06/10 11:34:06;;;;;;;4.97;3.60;;;691.80;2278.40;;;;;;4887490;29;20066;-73
2023/06/10 11:36:34;;;;;;;3.58;2.80;;;692.10;2124.80;;;;;;4893409;29;20033;-75
2023/06/10 11:39:03;;;;;;;4.55;3.03;;;692.10;1971.20;;;;;;4884237;29;20075;-71
2023/06/10 11:41:30;;;;;;;4.53;3.53;;;716.80;2022.40;;;;;;4891963;29;20069;-72
2023/06/10 11:44:01;;;;;;;4.90;3.50;;;716.90;2022.40;;;;;;4891687;29;20029;-73
2023/06/10 11:46:27;;;;;;;6.13;3.83;;;717.20;1945.60;;;;;;4889570;29;20108;-72
2023/06/10 11:48:57;;;;;;;5.05;3.47;;;717.20;1945.60;;;;;;4890883;29;20431;-78
2023/06/10 11:51:28;;;;;;;4.53;3.55;;;717.20;2048.00;;;;;;4886252;29;20124;-71
2023/06/10 11:53:54;;;;;;;6.45;3.95;;;717.10;2022.40;;;;;;4893506;29;20039;-76
2023/06/10 11:56:22;;;;;;;4.78;3.47;;;716.90;2150.40;;;;;;4887837;29;20021;-71
2023/06/10 11:59:15;;;;;;;5.78;4.55;;;716.80;2252.80;;;;;;4887998;29;20499;-72
2023/06/10 12:01:45;;;;;;;5.20;4.53;;;717.20;2304.00;;;;;;4888372;29;20072;-75
2023/06/10 12:04:13;;;;;;;6.47;4.45;;;717.60;2150.40;;;;;;4883879;29;20458;-73
2023/06/10 12:06:50;;;;;;;5.60;4.55;;;742.40;2099.20;;;;;;4884199;29;20100;-73
2023/06/10 12:09:19;;;;;;;6.07;4.45;;;742.60;2099.20;;;;;;4870132;29;20040;-73
2023/06/10 12:11:46;;;;;;;5.20;3.90;;;742.70;2201.60;;;;;;4894856;29;20454;-71